Time;durP1;ratioP1;P1;durP2;ratioP2;P2;SDS_P1;SDS_P2;PMS_P1;PMS_P2;Temp;Humidity;BMP_temperature;BMP_pressure;BME280_temperature;BME280_humidity;BME280_pressure;Samples;Min_cycle;Max_cycle;Signal;HPM_P1;HPM_P2
2023/07/19 00:02:01;;;;;;;6.90;4.78;;;;;;;25.41;56.73;94882.50;4933548;29;20209;-85
2023/07/19 00:04:28;;;;;;;5.43;4.93;;;;;;;25.40;57.87;94917.84;4934302;29;20229;-87
2023/07/19 00:06:55;;;;;;;5.85;5.03;;;;;;;25.42;57.68;94914.94;4934736;29;20210;-86
2023/07/19 00:09:21;;;;;;;5.97;4.70;;;;;;;25.38;57.88;94914.75;4933919;29;20296;-86
2023/07/19 00:11:48;;;;;;;5.90;4.70;;;;;;;25.43;57.59;94895.41;4933158;29;20226;-87
2023/07/19 00:14:16;;;;;;;7.00;4.90;;;;;;;25.39;57.49;94903.13;4922113;29;20665;-87
2023/07/19 00:16:45;;;;;;;7.45;4.78;;;;;;;25.37;57.61;94893.94;4915979;29;20257;-87
2023/07/19 00:19:15;;;;;;;4.53;4.13;;;;;;;25.35;57.38;94883.69;4929928;29;20297;-84
2023/07/19 00:21:41;;;;;;;5.30;4.63;;;;;;;25.31;57.31;94863.44;4933888;29;20232;-86
2023/07/19 00:24:07;;;;;;;5.40;4.90;;;;;;;25.33;57.01;94877.91;4934086;29;20225;-87
2023/07/19 00:26:34;;;;;;;6.03;4.93;;;;;;;25.32;57.47;94889.53;4923921;29;20834;-87
2023/07/19 00:29:02;;;;;;;6.13;4.88;;;;;;;25.31;57.41;94900.34;4922328;29;20233;-87
2023/07/19 00:31:29;;;;;;;5.55;4.82;;;;;;;25.26;58.13;94924.91;4933782;29;20233;-87
2023/07/19 00:33:56;;;;;;;6.88;4.85;;;;;;;25.24;58.13;94921.78;4932966;29;20247;-87
2023/07/19 00:36:22;;;;;;;5.43;4.55;;;;;;;25.23;57.96;94929.97;4934093;29;20224;-86
2023/07/19 00:38:50;;;;;;;5.60;4.82;;;;;;;25.19;58.39;94940.31;4933501;29;20300;-86
2023/07/19 00:41:18;;;;;;;7.13;4.60;;;;;;;25.19;58.53;94964.03;4933407;29;20225;-86
2023/07/19 00:43:44;;;;;;;6.22;4.68;;;;;;;25.21;58.81;94961.88;4933641;29;20229;-87
2023/07/19 00:46:11;;;;;;;7.80;5.07;;;;;;;25.28;58.10;94946.50;4933917;29;20205;-86
2023/07/19 00:48:39;;;;;;;6.35;5.30;;;;;;;25.26;58.37;94946.00;4928387;29;20214;-87
2023/07/19 00:51:05;;;;;;;5.07;4.50;;;;;;;25.28;58.39;94954.41;4928636;29;20636;-87
2023/07/19 00:53:33;;;;;;;6.55;4.78;;;;;;;25.26;58.64;94950.47;4932941;29;20213;-87
2023/07/19 00:56:00;;;;;;;7.03;4.90;;;;;;;25.30;58.31;94946.22;4933056;29;20241;-87
2023/07/19 00:58:27;;;;;;;5.10;4.63;;;;;;;25.28;58.45;94935.94;4933603;29;20209;-87
2023/07/19 01:00:53;;;;;;;7.03;5.00;;;;;;;25.27;58.72;94949.41;4928396;29;20228;-86
2023/07/19 01:03:20;;;;;;;7.63;4.90;;;;;;;25.26;58.54;94956.53;4914459;29;20230;-85
2023/07/19 01:05:48;;;;;;;6.80;4.90;;;;;;;25.18;59.28;94966.94;4928728;29;20201;-85
2023/07/19 01:08:15;;;;;;;7.82;4.40;;;;;;;25.08;59.05;94970.47;4933005;29;20213;-85
2023/07/19 01:10:42;;;;;;;6.13;3.88;;;;;;;25.01;59.51;94978.72;4932768;29;20229;-86
2023/07/19 01:13:10;;;;;;;6.03;3.67;;;;;;;25.01;59.11;94973.47;4932983;29;20198;-87
2023/07/19 01:15:37;;;;;;;7.25;3.60;;;;;;;24.95;59.37;94982.47;4932726;29;20201;-87
2023/07/19 01:18:06;;;;;;;6.30;3.90;;;;;;;24.86;59.49;94978.06;4932244;29;20205;-87
2023/07/19 01:20:33;;;;;;;5.72;3.95;;;;;;;24.74;59.94;95000.31;4932098;29;20261;-87
2023/07/19 01:23:02;;;;;;;7.38;4.30;;;;;;;24.72;59.52;95005.09;4930255;29;20244;-87
2023/07/19 01:25:29;;;;;;;7.78;4.05;;;;;;;24.67;59.98;95015.66;4930701;29;20213;-87
2023/07/19 01:27:55;;;;;;;5.78;3.67;;;;;;;24.53;59.93;95006.06;4913490;29;20253;-87
2023/07/19 01:30:22;;;;;;;11.50;4.28;;;;;;;24.58;59.90;94990.22;4931391;29;20217;-87
2023/07/19 01:32:49;;;;;;;5.78;3.80;;;;;;;24.57;60.28;94999.19;4931997;29;20209;-87
2023/07/19 01:35:16;;;;;;;6.97;4.00;;;;;;;24.64;60.10;94997.00;4932302;29;20713;-88
2023/07/19 01:37:43;;;;;;;5.80;3.90;;;;;;;24.71;59.70;94977.19;4932626;29;20256;-86
2023/07/19 01:40:12;;;;;;;6.25;3.90;;;;;;;24.67;60.09;94970.13;4930360;29;20232;-87
2023/07/19 01:42:39;;;;;;;6.57;4.40;;;;;;;24.61;60.14;94973.88;4932171;29;20206;-87
2023/07/19 01:45:06;;;;;;;8.35;4.10;;;;;;;24.60;60.17;94996.00;4931608;29;20865;-87
2023/07/19 01:47:33;;;;;;;7.10;4.00;;;;;;;24.62;60.33;94993.88;4924731;29;20206;-87
2023/07/19 01:50:00;;;;;;;8.07;3.85;;;;;;;24.58;60.37;95001.56;4931925;29;20316;-87
2023/07/19 01:52:26;;;;;;;7.07;3.78;;;;;;;24.56;60.57;95003.66;4932157;29;20214;-87
2023/07/19 01:54:53;;;;;;;7.70;4.22;;;;;;;24.50;60.87;95012.66;4930249;29;20214;-87
2023/07/19 01:57:22;;;;;;;6.30;3.83;;;;;;;24.54;60.41;95002.38;4925333;29;20202;-86
2023/07/19 01:59:48;;;;;;;6.72;3.80;;;;;;;24.54;60.58;95020.81;4912803;29;20234;-87
2023/07/19 02:02:15;;;;;;;7.43;3.95;;;;;;;24.56;60.15;95000.25;4912505;29;20217;-87
2023/07/19 02:04:41;;;;;;;8.82;4.00;;;;;;;24.55;60.38;95012.63;4920147;29;20236;-87
2023/07/19 02:07:07;;;;;;;6.90;3.88;;;;;;;24.52;60.96;95015.81;4931853;29;20205;-87
2023/07/19 02:09:34;;;;;;;7.10;3.67;;;;;;;24.54;60.56;95021.59;4931357;29;20237;-88
2023/07/19 02:12:03;;;;;;;7.82;4.20;;;;;;;24.55;60.79;95027.63;4930138;29;20217;-87
2023/07/19 02:14:31;;;;;;;6.70;4.20;;;;;;;24.50;60.71;95030.31;4931721;29;20841;-87
2023/07/19 02:16:58;;;;;;;7.13;4.03;;;;;;;24.42;60.92;95035.13;4931900;29;20210;-87
2023/07/19 02:19:24;;;;;;;5.07;3.25;;;;;;;24.37;61.39;95072.00;4931723;29;20217;-87
2023/07/19 02:21:50;;;;;;;6.55;4.32;;;;;;;24.34;61.27;95063.88;4930875;29;20232;-87
2023/07/19 02:24:17;;;;;;;8.85;4.07;;;;;;;24.25;61.48;95062.88;4931039;29;20232;-87
2023/07/19 02:26:44;;;;;;;9.60;4.28;;;;;;;24.11;62.39;95071.38;4929834;29;20245;-87
2023/07/19 02:29:10;;;;;;;7.82;4.32;;;;;;;24.10;62.35;95098.72;4934315;29;20209;-87
2023/07/19 02:31:38;;;;;;;7.07;3.97;;;;;;;24.13;62.54;95086.88;4935338;29;20272;-87
2023/07/19 02:34:05;;;;;;;6.68;3.92;;;;;;;24.13;62.53;95086.88;4935491;29;20738;-87
2023/07/19 02:36:33;;;;;;;6.22;3.50;;;;;;;24.16;62.30;95090.81;4935313;29;20204;-87
2023/07/19 02:39:00;;;;;;;7.60;4.20;;;;;;;24.08;63.00;95089.53;4935354;29;20248;-87
2023/07/19 02:41:26;;;;;;;7.78;3.90;;;;;;;23.93;63.56;95102.78;4931613;29;20608;-87
2023/07/19 02:43:53;;;;;;;7.00;3.90;;;;;;;23.88;63.77;95118.59;4928990;29;20225;-84
2023/07/19 02:46:20;;;;;;;9.07;3.83;;;;;;;23.87;63.92;95130.16;4935604;29;20213;-87
2023/07/19 02:48:47;;;;;;;8.15;4.10;;;;;;;23.87;64.00;95123.06;4935514;29;20209;-87
2023/07/19 02:51:14;;;;;;;8.20;4.20;;;;;;;23.91;63.77;95115.41;4935443;29;20225;-87
2023/07/19 02:53:41;;;;;;;6.97;3.72;;;;;;;23.89;64.39;95113.06;4934838;29;20212;-87
2023/07/19 02:56:09;;;;;;;7.03;4.22;;;;;;;23.84;64.60;95138.63;4934903;29;20228;-87
2023/07/19 02:58:36;;;;;;;8.48;3.83;;;;;;;23.80;64.89;95140.19;4933889;29;20210;-87
2023/07/19 03:01:02;;;;;;;12.68;4.30;;;;;;;23.84;64.85;95130.72;4934316;29;20240;-87
2023/07/19 03:03:29;;;;;;;8.02;4.30;;;;;;;23.72;65.46;95157.31;4934923;29;20229;-87
2023/07/19 03:05:57;;;;;;;6.85;3.72;;;;;;;23.74;65.03;95158.63;4934989;29;20236;-87
2023/07/19 03:08:23;;;;;;;8.18;4.00;;;;;;;23.73;65.77;95164.16;4934833;29;20193;-87
2023/07/19 03:10:53;;;;;;;7.22;3.92;;;;;;;23.64;66.28;95174.44;4934712;29;20599;-87
2023/07/19 03:13:19;;;;;;;9.20;4.13;;;;;;;23.68;66.15;95183.34;4935093;29;20239;-87
2023/07/19 03:15:47;;;;;;;7.60;4.03;;;;;;;23.69;66.44;95189.41;4933469;29;20213;-87
2023/07/19 03:18:13;;;;;;;7.53;4.10;;;;;;;23.71;66.24;95182.81;4934903;29;20582;-87
2023/07/19 03:20:40;;;;;;;10.93;4.00;;;;;;;23.65;66.93;95206.78;4934876;29;20230;-87
2023/07/19 03:23:08;;;;;;;6.57;4.32;;;;;;;23.59;67.68;95221.75;4934228;29;20205;-87
2023/07/19 03:25:34;;;;;;;9.30;4.43;;;;;;;23.62;67.15;95207.31;4934764;29;20831;-87
2023/07/19 03:28:01;;;;;;;9.75;4.60;;;;;;;23.60;67.74;95219.94;4935436;29;20214;-87
2023/07/19 03:30:27;;;;;;;9.23;4.22;;;;;;;23.56;68.48;95235.44;4934504;29;20233;-87
2023/07/19 03:32:54;;;;;;;7.22;4.05;;;;;;;23.56;68.52;95234.66;4932561;29;20232;-87
2023/07/19 03:35:20;;;;;;;5.97;3.97;;;;;;;23.57;68.69;95246.75;4934665;29;20201;-87
2023/07/19 03:37:47;;;;;;;7.47;4.35;;;;;;;23.52;69.38;95250.16;4928512;29;20215;-87
2023/07/19 03:40:15;;;;;;;7.80;4.75;;;;;;;23.55;69.71;95256.72;4930430;29;20225;-86
2023/07/19 03:42:42;;;;;;;7.93;4.75;;;;;;;23.55;69.83;95261.97;4934573;29;20206;-87
2023/07/19 03:45:09;;;;;;;7.55;4.47;;;;;;;23.51;70.23;95279.31;4934417;29;20225;-87
2023/07/19 03:47:37;;;;;;;8.13;4.55;;;;;;;23.54;70.03;95278.81;4932855;29;20217;-86
2023/07/19 03:50:05;;;;;;;8.50;4.38;;;;;;;23.52;70.58;95271.19;4933961;29;20236;-86
2023/07/19 03:52:31;;;;;;;9.45;4.22;;;;;;;23.41;71.08;95278.28;4932499;29;20220;-86
2023/07/19 03:54:58;;;;;;;12.98;5.00;;;;;;;23.33;72.20;95296.41;4934448;29;20197;-86
2023/07/19 03:57:26;;;;;;;9.90;4.63;;;;;;;23.31;71.82;95291.41;4934799;29;20198;-84
2023/07/19 03:59:52;;;;;;;6.40;4.40;;;;;;;23.29;72.54;95311.91;4936449;29;20225;-84
2023/07/19 04:02:19;;;;;;;7.80;4.40;;;;;;;23.39;71.92;95295.34;4935392;29;20201;-83
2023/07/19 04:04:46;;;;;;;9.00;4.97;;;;;;;23.37;72.06;95292.97;4931910;29;20293;-86
2023/07/19 04:07:12;;;;;;;7.72;4.88;;;;;;;23.44;72.24;95295.34;4935102;29;20209;-85
2023/07/19 04:09:39;;;;;;;9.25;4.95;;;;;;;23.43;72.23;95278.81;4937978;29;20619;-85
2023/07/19 04:12:06;;;;;;;7.10;4.43;;;;;;;23.48;71.71;95262.22;4937597;29;20201;-86
2023/07/19 04:14:34;;;;;;;8.27;4.30;;;;;;;23.50;71.76;95259.31;4937028;29;20202;-85
2023/07/19 04:17:01;;;;;;;8.98;4.53;;;;;;;23.50;72.05;95265.38;4936776;29;20708;-86
2023/07/19 04:19:27;;;;;;;10.90;5.10;;;;;;;23.44;72.50;95266.44;4929183;29;20213;-86
2023/07/19 04:21:53;;;;;;;10.15;4.72;;;;;;;23.42;72.78;95286.94;4930623;29;20221;-85
2023/07/19 04:24:23;;;;;;;8.48;4.60;;;;;;;23.47;72.79;95286.94;4931871;29;20222;-85
2023/07/19 04:26:50;;;;;;;7.80;4.35;;;;;;;23.44;72.90;95282.22;4927163;29;20202;-84
2023/07/19 04:29:21;;;;;;;12.70;5.75;;;;;;;23.39;74.11;95306.66;4926886;29;20229;-84
2023/07/19 04:31:50;;;;;;;21.63;8.70;;;;;;;23.35;74.88;95331.09;4931425;29;20237;-83
2023/07/19 04:34:20;;;;;;;17.45;7.65;;;;;;;23.39;74.63;95324.25;4930757;29;20292;-83
2023/07/19 04:36:47;;;;;;;11.65;5.30;;;;;;;23.41;74.25;95319.53;4935778;29;20232;-83
2023/07/19 04:39:14;;;;;;;11.60;4.95;;;;;;;23.52;73.31;95299.31;4938008;29;20209;-84
2023/07/19 04:41:44;;;;;;;17.40;12.52;;;;;;;23.60;72.82;95291.69;4936765;29;20257;-83
2023/07/19 04:44:10;;;;;;;10.27;7.32;;;;;;;23.68;72.06;95283.25;4935136;29;20220;-84
2023/07/19 04:46:37;;;;;;;9.75;5.25;;;;;;;23.75;72.04;95283.75;4935720;29;20202;-83
2023/07/19 04:49:40;;;;;;;8.65;4.57;;;;;;;23.75;72.51;95296.91;4936947;29;20201;-83
2023/07/19 04:52:07;;;;;;;9.70;5.13;;;;;;;23.77;72.14;95294.81;4934550;29;20213;-81
2023/07/19 04:54:34;;;;;;;11.35;4.50;;;;;;;23.84;71.81;95293.75;4935770;29;20198;-82
2023/07/19 04:57:00;;;;;;;8.75;4.88;;;;;;;23.86;71.38;95292.41;4936356;29;20318;-83
2023/07/19 04:59:27;;;;;;;10.40;4.75;;;;;;;23.83;71.81;95294.81;4927473;29;20234;-82
2023/07/19 05:01:53;;;;;;;7.55;4.55;;;;;;;23.91;71.19;95281.09;4917396;29;20230;-83
2023/07/19 05:04:20;;;;;;;10.80;5.80;;;;;;;23.87;71.71;95272.16;4922540;29;20221;-82
2023/07/19 05:06:49;;;;;;;7.63;5.35;;;;;;;23.96;71.24;95279.25;4918597;29;20226;-84
2023/07/19 05:09:16;;;;;;;6.82;4.95;;;;;;;23.84;71.35;95265.63;4930802;29;20198;-83
2023/07/19 05:11:42;;;;;;;7.13;4.95;;;;;;;23.88;71.24;95264.00;4937252;29;20221;-83
2023/07/19 05:14:09;;;;;;;7.38;4.78;;;;;;;24.05;70.17;95267.09;4936454;29;20205;-83
2023/07/19 05:16:36;;;;;;;8.43;5.15;;;;;;;24.11;70.27;95255.50;4936653;29;20233;-82
2023/07/19 05:19:03;;;;;;;6.40;4.70;;;;;;;24.22;69.87;95258.91;4935781;29;20200;-83
2023/07/19 05:21:29;;;;;;;10.73;4.80;;;;;;;24.19;69.79;95258.66;4926496;29;20229;-83
2023/07/19 05:23:57;;;;;;;8.75;4.97;;;;;;;24.24;69.74;95256.03;4918447;29;20470;-82
2023/07/19 05:26:24;;;;;;;7.30;4.60;;;;;;;24.37;69.42;95255.44;4920637;29;20197;-83
2023/07/19 05:28:51;;;;;;;6.68;4.60;;;;;;;24.44;69.17;95240.13;4935095;29;20228;-82
2023/07/19 05:31:18;;;;;;;9.18;4.82;;;;;;;24.43;68.98;95238.56;4927904;29;20229;-83
2023/07/19 05:33:44;;;;;;;9.18;4.88;;;;;;;24.42;69.36;95250.94;4934464;29;20695;-85
2023/07/19 05:36:11;;;;;;;8.07;5.15;;;;;;;24.54;69.09;95257.72;4935556;29;20201;-84
2023/07/19 05:38:37;;;;;;;6.90;4.80;;;;;;;24.64;68.54;95242.63;4934667;29;20224;-84
2023/07/19 05:41:06;;;;;;;7.32;4.57;;;;;;;24.76;68.19;95239.69;4934709;29;20323;-84
2023/07/19 05:43:33;;;;;;;7.60;4.63;;;;;;;24.84;67.31;95218.00;4922925;29;20249;-83
2023/07/19 05:46:04;;;;;;;6.68;4.40;;;;;;;24.86;67.22;95202.72;4919340;29;20233;-83
2023/07/19 05:48:33;;;;;;;8.73;4.72;;;;;;;24.80;67.15;95201.22;4926745;29;20559;-83
2023/07/19 05:50:59;;;;;;;6.88;5.10;;;;;;;24.88;67.10;95192.69;4934151;29;20710;-83
2023/07/19 05:53:26;;;;;;;10.95;4.85;;;;;;;24.94;66.95;95175.84;4934814;29;20220;-84
2023/07/19 05:55:53;;;;;;;11.20;4.85;;;;;;;25.08;66.25;95165.44;4935553;29;20236;-83
2023/07/19 05:58:21;;;;;;;8.38;5.03;;;;;;;25.21;65.89;95159.50;4934555;29;20204;-84
2023/07/19 06:00:48;;;;;;;7.68;4.80;;;;;;;25.31;65.68;95150.72;4933919;29;20241;-83
2023/07/19 06:03:16;;;;;;;9.13;4.95;;;;;;;25.37;65.23;95154.88;4933257;29;20198;-84
2023/07/19 06:05:43;;;;;;;6.82;4.55;;;;;;;25.43;64.40;95138.72;4930881;29;20217;-85
2023/07/19 06:08:09;;;;;;;9.23;5.00;;;;;;;25.52;64.53;95136.25;4931751;29;20803;-83
2023/07/19 06:10:36;;;;;;;12.13;5.97;;;;;;;25.44;65.09;95152.69;4916254;29;20678;-84
2023/07/19 06:13:03;;;;;;;7.97;5.10;;;;;;;25.47;64.53;95160.81;4932997;29;20263;-84
2023/07/19 06:15:31;;;;;;;9.07;4.82;;;;;;;25.56;64.17;95144.38;4931521;29;20217;-84
2023/07/19 06:17:58;;;;;;;8.63;4.95;;;;;;;25.63;64.26;95140.34;4924399;29;20206;-84
2023/07/19 06:20:24;;;;;;;8.60;5.55;;;;;;;25.60;64.29;95140.09;4934048;29;20236;-84
2023/07/19 06:22:51;;;;;;;7.88;4.97;;;;;;;25.60;64.22;95132.19;4930229;29;20216;-84
2023/07/19 06:25:17;;;;;;;9.35;4.82;;;;;;;25.66;64.41;95126.63;4933554;29;20222;-84
2023/07/19 06:27:44;;;;;;;9.68;5.10;;;;;;;25.77;63.82;95128.06;4927618;29;20198;-85
2023/07/19 06:30:13;;;;;;;6.05;4.95;;;;;;;25.77;63.13;95108.84;4927022;29;20224;-84
2023/07/19 06:32:41;;;;;;;7.18;4.80;;;;;;;25.80;62.92;95102.97;4930534;29;20304;-84
2023/07/19 06:35:09;;;;;;;6.47;4.88;;;;;;;25.80;63.15;95102.97;4934740;29;20197;-85
2023/07/19 06:37:35;;;;;;;7.63;5.20;;;;;;;25.88;62.76;95089.16;4934717;29;20221;-84
2023/07/19 06:40:03;;;;;;;8.57;4.50;;;;;;;25.92;62.16;95078.81;4933074;29;20226;-85
2023/07/19 06:42:30;;;;;;;7.35;4.50;;;;;;;26.01;62.38;95077.09;4923455;29;20244;-84
2023/07/19 06:44:57;;;;;;;8.10;4.70;;;;;;;26.18;61.86;95069.44;4926361;29;20272;-84
2023/07/19 06:47:23;;;;;;;6.32;4.40;;;;;;;26.27;61.60;95059.03;4924212;29;20229;-86
2023/07/19 06:49:51;;;;;;;8.38;5.30;;;;;;;26.14;61.14;95057.91;4933419;29;20664;-84
2023/07/19 06:52:18;;;;;;;6.47;5.00;;;;;;;26.14;61.49;95069.25;4922912;29;20232;-84
2023/07/19 06:54:44;;;;;;;6.20;4.65;;;;;;;26.17;61.63;95078.44;4925824;29;20201;-84
2023/07/19 06:57:10;;;;;;;6.22;5.13;;;;;;;26.22;62.20;95083.66;4926456;29;20202;-86
2023/07/19 06:59:37;;;;;;;7.53;4.85;;;;;;;26.28;61.65;95082.50;4932301;29;20892;-85
2023/07/19 07:02:03;;;;;;;7.72;4.90;;;;;;;26.28;61.87;95094.91;4931392;29;20284;-84
2023/07/19 07:04:30;;;;;;;6.03;4.85;;;;;;;26.27;61.60;95085.44;4933028;29;20241;-84
2023/07/19 07:06:58;;;;;;;9.13;4.70;;;;;;;26.34;61.58;95076.13;4932964;29;20197;-85
2023/07/19 07:09:25;;;;;;;6.40;5.00;;;;;;;26.35;61.52;95095.38;4933643;29;20205;-85
2023/07/19 07:11:52;;;;;;;9.15;4.97;;;;;;;26.40;61.78;95108.47;4928139;29;20503;-85
2023/07/19 07:14:18;;;;;;;6.22;5.00;;;;;;;26.41;62.17;95123.25;4928785;29;20209;-83
2023/07/19 07:16:44;;;;;;;7.70;4.90;;;;;;;26.47;61.59;95098.34;4937712;29;20210;-84
2023/07/19 07:19:11;;;;;;;7.30;4.75;;;;;;;26.52;61.12;95082.44;4937909;29;20205;-84
2023/07/19 07:21:38;;;;;;;7.50;5.07;;;;;;;26.46;59.70;95050.03;4937322;29;20602;-85
2023/07/19 07:24:06;;;;;;;8.48;5.20;;;;;;;26.51;59.14;95030.69;4926465;29;20905;-85
2023/07/19 07:26:33;;;;;;;7.35;5.20;;;;;;;26.45;59.36;95018.63;4917039;29;20286;-84
2023/07/19 07:28:59;;;;;;;7.22;4.60;;;;;;;26.34;58.51;95007.47;4936576;29;20213;-85
2023/07/19 07:31:25;;;;;;;7.75;5.07;;;;;;;26.39;59.43;95033.00;4936595;29;20232;-85
2023/07/19 07:33:52;;;;;;;8.93;5.22;;;;;;;26.49;59.27;95046.81;4936419;29;20210;-85
2023/07/19 07:36:20;;;;;;;8.77;5.43;;;;;;;26.48;59.00;95013.56;4937132;29;20694;-84
2023/07/19 07:38:48;;;;;;;5.78;5.05;;;;;;;26.61;59.32;95017.28;4936819;29;20224;-85
2023/07/19 07:41:16;;;;;;;6.70;5.13;;;;;;;26.76;58.61;94998.53;4937227;29;20240;-87
2023/07/19 07:43:42;;;;;;;7.32;4.82;;;;;;;26.92;59.42;95019.41;4934954;29;20209;-86
2023/07/19 07:46:09;;;;;;;8.50;4.80;;;;;;;27.11;58.43;94991.84;4935230;29;20236;-85
2023/07/19 07:48:35;;;;;;;8.70;4.80;;;;;;;27.20;57.36;94946.97;4935455;29;20206;-86
2023/07/19 07:51:02;;;;;;;4.93;4.47;;;;;;;27.25;55.59;94880.00;4935764;29;20288;-85
2023/07/19 07:53:28;;;;;;;7.00;4.38;;;;;;;27.29;54.88;94847.38;4934492;29;20210;-86
2023/07/19 07:55:54;;;;;;;5.25;4.25;;;;;;;27.34;55.54;94846.47;4934484;29;20201;-85
2023/07/19 07:58:22;;;;;;;4.85;4.35;;;;;;;27.46;54.94;94844.88;4935763;29;20699;-84
2023/07/19 08:00:49;;;;;;;7.53;4.80;;;;;;;27.55;52.75;94717.19;4933818;29;20229;-86
2023/07/19 08:03:15;;;;;;;6.07;4.70;;;;;;;27.66;53.37;94771.41;4935613;29;20586;-85
2023/07/19 08:05:42;;;;;;;5.10;4.60;;;;;;;27.67;52.50;94728.78;4931300;29;20226;-84
2023/07/19 08:08:09;;;;;;;5.38;4.25;;;;;;;27.74;52.36;94734.41;4935658;29;20618;-85
2023/07/19 08:10:37;;;;;;;6.68;4.40;;;;;;;27.70;50.73;94635.59;4935660;29;20229;-85
2023/07/19 08:13:04;;;;;;;7.72;6.38;;;;;;;27.65;50.38;94606.66;4934616;29;20225;-85
2023/07/19 08:15:33;;;;;;;5.35;4.70;;;;;;;27.77;49.47;94566.34;4932556;29;20205;-85
2023/07/19 08:18:00;;;;;;;5.03;3.70;;;;;;;27.89;48.52;94523.44;4927855;29;20293;-85
2023/07/19 08:20:26;;;;;;;4.35;3.70;;;;;;;28.00;48.13;94466.44;4927153;29;20331;-85
2023/07/19 08:22:53;;;;;;;5.43;4.10;;;;;;;28.19;47.83;94494.16;4925917;29;20202;-85
2023/07/19 08:25:20;;;;;;;5.82;3.95;;;;;;;28.27;48.09;94476.72;4921944;29;20220;-86
2023/07/19 08:27:46;;;;;;;5.78;3.53;;;;;;;28.40;47.29;94428.09;4935286;29;20206;-85
2023/07/19 08:30:15;;;;;;;4.78;3.80;;;;;;;28.55;46.79;94402.94;4934758;29;20643;-85
2023/07/19 08:32:44;;;;;;;4.35;3.63;;;;;;;28.57;46.61;94398.09;4927354;29;20268;-85
2023/07/19 08:35:11;;;;;;;5.25;3.60;;;;;;;28.58;45.25;94340.59;4934652;29;20297;-85
2023/07/19 08:37:37;;;;;;;4.88;3.83;;;;;;;28.46;44.48;94283.03;4934608;29;20240;-86
2023/07/19 08:40:05;;;;;;;4.10;3.70;;;;;;;28.57;44.67;94300.09;4935352;29;20213;-86
2023/07/19 08:42:32;;;;;;;4.15;3.75;;;;;;;28.71;45.46;94313.88;4934324;29;20197;-86
2023/07/19 08:44:59;;;;;;;6.78;4.10;;;;;;;28.91;45.19;94344.16;4933948;29;20217;-86
2023/07/19 08:47:25;;;;;;;4.28;3.70;;;;;;;29.01;43.88;94255.56;4933930;29;20205;-87
2023/07/19 08:49:55;;;;;;;5.20;3.80;;;;;;;29.01;42.89;94199.91;4932799;29;20209;-87
2023/07/19 08:52:22;;;;;;;5.38;4.10;;;;;;;29.17;43.23;94198.97;4935421;29;20205;-86
2023/07/19 08:54:49;;;;;;;6.18;3.95;;;;;;;29.37;42.34;94191.28;4934612;29;20197;-86
2023/07/19 08:57:15;;;;;;;7.20;3.70;;;;;;;29.37;42.66;94197.34;4927113;29;20199;-86
2023/07/19 08:59:42;;;;;;;7.47;3.75;;;;;;;29.53;43.37;94224.81;4925749;29;20218;-86
2023/07/19 09:02:08;;;;;;;7.25;4.22;;;;;;;29.71;42.38;94216.66;4924683;29;20202;-86
2023/07/19 09:04:36;;;;;;;5.60;4.75;;;;;;;29.82;41.53;94140.81;4925475;29;20197;-86
2023/07/19 09:07:05;;;;;;;4.40;3.97;;;;;;;29.81;41.76;94152.53;4925026;29;20228;-86
2023/07/19 09:09:31;;;;;;;5.05;4.32;;;;;;;29.99;42.78;94211.50;4927392;29;20210;-86
2023/07/19 09:11:59;;;;;;;6.78;3.72;;;;;;;30.18;42.61;94198.44;4926802;29;20232;-86
2023/07/19 09:14:35;;;;;;;7.63;3.97;;;;;;;29.78;41.61;94153.19;4931259;29;20205;-86
2023/07/19 09:17:01;;;;;;;4.45;3.80;;;;;;;29.89;42.02;94194.88;4922811;29;20194;-86
2023/07/19 09:19:28;;;;;;;4.13;3.65;;;;;;;29.56;41.93;94165.03;4921734;29;20208;-86
2023/07/19 09:21:57;;;;;;;5.55;3.78;;;;;;;29.47;41.59;94170.41;4932585;29;20280;-85
2023/07/19 09:24:25;;;;;;;5.82;4.25;;;;;;;29.57;41.62;94165.78;4933953;29;20620;-86
2023/07/19 09:26:52;;;;;;;6.70;3.85;;;;;;;29.70;42.71;94201.84;4933049;29;20234;-87
2023/07/19 09:29:19;;;;;;;4.65;3.60;;;;;;;29.72;42.68;94216.31;4932400;29;20206;-85
2023/07/19 09:31:56;;;;;;;4.78;4.22;;;;;;;29.94;42.21;94193.13;4932239;29;20224;-86
2023/07/19 09:34:23;;;;;;;4.15;3.75;;;;;;;30.08;39.82;94087.38;4928333;29;20605;-86
2023/07/19 09:36:52;;;;;;;5.10;3.75;;;;;;;30.17;40.23;94088.03;4924280;29;20233;-86
2023/07/19 09:39:18;;;;;;;5.28;3.70;;;;;;;30.22;40.46;94087.78;4923293;29;20201;-86
2023/07/19 09:41:47;;;;;;;8.25;3.92;;;;;;;30.42;39.85;94092.13;4931317;29;20576;-87
2023/07/19 09:44:15;;;;;;;10.18;4.60;;;;;;;30.39;40.05;94084.88;4924194;29;20224;-86
2023/07/19 09:46:43;;;;;;;5.03;3.88;;;;;;;30.50;39.78;94093.09;4933585;29;20293;-86
2023/07/19 09:49:10;;;;;;;5.57;4.15;;;;;;;30.69;39.79;94100.47;4933453;29;20229;-86
2023/07/19 09:51:40;;;;;;;3.83;3.47;;;;;;;30.71;38.85;94019.31;4931413;29;20248;-86
2023/07/19 09:54:09;;;;;;;5.78;4.07;;;;;;;30.88;39.95;94079.34;4923540;29;20248;-87
2023/07/19 09:56:35;;;;;;;4.75;3.38;;;;;;;31.03;38.60;94022.75;4929644;29;20233;-86
2023/07/19 09:59:05;;;;;;;6.38;3.40;;;;;;;31.11;38.39;93991.81;4932416;29;20206;-87
2023/07/19 10:01:36;;;;;;;3.85;3.55;;;;;;;31.10;37.64;93950.34;4931771;29;20728;-88
2023/07/19 10:04:21;;;;;;;4.60;3.80;;;;;;;30.96;36.15;93876.38;4930810;29;20198;-88
2023/07/19 10:06:48;;;;;;;5.28;3.40;;;;;;;30.94;37.10;93917.72;4923745;29;20229;-85
2023/07/19 10:09:31;;;;;;;4.35;3.33;;;;;;;30.73;37.92;93950.66;4931513;29;20263;-85
2023/07/19 10:12:00;;;;;;;4.85;3.92;;;;;;;30.87;37.76;93945.66;4919569;29;20226;-85
2023/07/19 10:14:29;;;;;;;3.92;3.50;;;;;;;30.85;37.16;93899.28;4913266;29;20198;-86
2023/07/19 10:16:57;;;;;;;5.13;4.05;;;;;;;30.83;36.69;93891.66;4926308;29;20675;-85
2023/07/19 10:19:23;;;;;;;4.25;3.60;;;;;;;31.11;38.11;93952.69;4932556;29;20205;-83
2023/07/19 10:22:02;;;;;;;4.53;3.90;;;;;;;31.20;37.67;93912.59;4929224;29;20766;-82
2023/07/19 10:24:29;;;;;;;11.50;3.90;;;;;;;30.60;36.85;93882.75;4929416;29;20205;-85
2023/07/19 10:26:55;;;;;;;4.60;4.18;;;;;;;30.49;37.27;93910.94;4930393;29;20229;-85
2023/07/19 10:29:25;;;;;;;6.35;3.60;;;;;;;30.43;37.54;93915.72;4931537;29;20197;-84
2023/07/19 10:31:52;;;;;;;6.60;4.00;;;;;;;30.42;37.96;93914.16;4930530;29;20249;-87
2023/07/19 10:34:29;;;;;;;4.10;3.70;;;;;;;30.50;37.89;93921.22;4930323;29;20213;-86
2023/07/19 10:37:01;;;;;;;6.55;4.38;;;;;;;30.27;37.52;93891.03;4929448;29;20221;-82
2023/07/19 10:40:08;;;;;;;6.15;3.75;;;;;;;30.41;37.76;93907.31;4927171;29;20220;-86
2023/07/19 10:42:34;;;;;;;10.55;4.68;;;;;;;30.71;37.60;93913.00;4859855;29;20209;-86
2023/07/19 10:45:03;;;;;;;4.65;3.65;;;;;;;30.85;37.76;93925.84;4930711;29;20217;-88
2023/07/19 10:47:33;;;;;;;3.85;3.55;;;;;;;30.74;37.01;93871.69;4931296;29;20229;-89
2023/07/19 10:50:52;;;;;;;5.70;3.78;;;;;;;30.85;37.24;93883.31;4935867;29;20225;-87
2023/07/19 10:54:00;;;;;;;3.97;3.67;;;;;;;30.77;36.42;93820.53;4934879;29;20217;-87
2023/07/19 10:56:29;;;;;;;4.30;3.60;;;;;;;30.54;36.45;93837.06;4914314;29;20281;-86
2023/07/19 10:58:58;;;;;;;5.75;3.70;;;;;;;30.65;37.08;93844.53;4928838;29;20230;-87
2023/07/19 11:01:29;;;;;;;9.25;7.57;;;;;;;30.68;35.94;93814.59;4928971;29;20258;-87
2023/07/19 11:04:07;;;;;;;7.03;6.32;;;;;;;30.85;36.13;93824.84;4933549;29;20213;-87
2023/07/19 11:06:34;;;;;;;4.45;3.67;;;;;;;30.92;35.91;93803.75;4933208;29;20224;-88
2023/07/19 11:09:05;;;;;;;4.70;3.70;;;;;;;31.06;35.50;93787.31;4925976;29;20197;-88
2023/07/19 11:11:35;;;;;;;3.72;3.42;;;;;;;31.15;34.84;93743.50;4921826;29;20309;-88
2023/07/19 11:14:02;;;;;;;4.10;3.70;;;;;;;31.19;35.02;93749.63;4932479;29;20245;-88
2023/07/19 11:16:32;;;;;;;4.97;3.90;;;;;;;31.20;35.10;93750.41;4933375;29;20229;-87
2023/07/19 11:19:06;;;;;;;4.55;3.65;;;;;;;31.32;34.54;93730.88;4933763;29;20214;-88
2023/07/19 11:21:32;;;;;;;5.47;3.65;;;;;;;31.55;35.51;93761.72;4932943;29;20235;-88
2023/07/19 11:24:06;;;;;;;4.53;3.53;;;;;;;31.53;34.58;93721.38;4933146;29;20665;-89
2023/07/19 11:26:33;;;;;;;4.07;3.70;;;;;;;31.53;34.83;93713.41;4933275;29;20221;-88
2023/07/19 11:29:00;;;;;;;5.53;3.33;;;;;;;31.12;34.15;93692.91;4932183;29;20320;-82
2023/07/19 11:31:28;;;;;;;3.90;3.58;;;;;;;30.83;34.16;93692.31;4934585;29;20230;-81
2023/07/19 11:34:00;;;;;;;4.10;3.65;;;;;;;30.88;35.14;93717.84;4934472;29;20288;-81
2023/07/19 11:36:26;;;;;;;5.78;3.70;;;;;;;31.00;34.80;93698.31;4935022;29;20208;-82